CheckWX is a tool to help pilots better visualize weather data.  It is not intended as a substitute for an official pre-flight weather briefing.

23:02:38 UTC

KGOK METAR
Guthrie-Edmond Regional Airport
Guthrie, Oklahoma, USA
Current

10 mins ago

KGOK 262253Z AUTO 17009KT 10SM CLR 19/04 A3025 RMK AO2 SLP245 T01940044
Observed
Mar-26 @ 22:53 UTC
Wind
  • 170° at 9 KTS
Visibility
10 SM
Flight Rules
VFR
Cloud Levels
  • Clear skies
Temperature
19°C / 66°F
Dewpoint
C / 39°F
Humidity
37%
Altimeter
30.25" Hg
Pressure
1024.5 hPa
Previous

1 hour ago

KGOK 262153Z AUTO 19004KT 10SM CLR 19/04 A3027 RMK AO2 SLP252 T01940044
Observed
Mar-26 @ 21:53 UTC
Wind
  • 190° at 4 KTS
Visibility
10 SM
Flight Rules
VFR
Cloud Levels
  • Clear skies
Temperature
19°C / 66°F
Dewpoint
C / 39°F
Humidity
37%
Altimeter
30.27" Hg
Pressure
1025.2 hPa
Previous

2 hours ago

KGOK 262053Z AUTO 10SM CLR 19/04 A3029 RMK AO2 SLP261 T01890044 58029
Observed
Mar-26 @ 20:53 UTC
Visibility
10 SM
Flight Rules
VFR
Cloud Levels
  • Clear skies
Temperature
19°C / 66°F
Dewpoint
C / 39°F
Humidity
37%
Altimeter
30.29" Hg
Pressure
1026.1 hPa